Time;durP1;ratioP1;P1;durP2;ratioP2;P2;SDS_P1;SDS_P2;PMS_P1;PMS_P2;Temp;Humidity;BMP_temperature;BMP_pressure;BME280_temperature;BME280_humidity;BME280_pressure;Samples;Min_cycle;Max_cycle;Signal;HPM_P1;HPM_P2
2022/04/17 00:02:23;;;;;;;3.30;2.08;;;;;;;;;;1712696;82;21044;-71
2022/04/17 00:04:50;;;;;;;2.80;2.00;;;;;;;;;;1714326;82;21044;-71
2022/04/17 00:07:16;;;;;;;3.12;2.20;;;;;;;;;;1726340;82;20997;-71
2022/04/17 00:09:43;;;;;;;2.58;1.90;;;;;;;;;;1727002;82;21017;-71
2022/04/17 00:12:10;;;;;;;2.95;2.02;;;;;;;;;;1723785;82;21086;-71
2022/04/17 00:14:38;;;;;;;2.98;1.90;;;;;;;;;;1727839;82;21048;-71
2022/04/17 00:17:05;;;;;;;2.83;2.20;;;;;;;;;;1723485;82;21069;-71
2022/04/17 00:19:33;;;;;;;6.10;2.37;;;;;;;;;;1732087;82;21375;-71
2022/04/17 00:22:00;;;;;;;3.72;2.05;;;;;;;;;;1736298;82;21551;-71
2022/04/17 00:24:28;;;;;;;3.15;2.10;;;;;;;;;;1739388;82;21140;-71
2022/04/17 00:26:59;;;;;;;3.40;2.20;;;;;;;;;;1744328;82;21093;-72
2022/04/17 00:29:24;;;;;;;2.90;2.22;;;;;;;;;;1742233;82;21556;-70
2022/04/17 00:31:51;;;;;;;3.42;2.40;;;;;;;;;;1712165;84;21060;-71
2022/04/17 00:34:19;;;;;;;3.75;2.35;;;;;;;;;;1712519;82;21108;-70
2022/04/17 00:36:45;;;;;;;3.85;2.30;;;;;;;;;;1736504;82;21064;-70
2022/04/17 00:39:15;;;;;;;3.70;2.42;;;;;;;;;;1739633;82;21033;-70
2022/04/17 00:41:42;;;;;;;3.90;2.17;;;;;;;;;;1726550;82;21024;-70
2022/04/17 00:44:11;;;;;;;4.58;2.08;;;;;;;;;;1746961;82;21056;-70
2022/04/17 00:46:38;;;;;;;2.17;1.98;;;;;;;;;;1724062;82;21017;-70
2022/04/17 00:49:04;;;;;;;4.00;2.30;;;;;;;;;;1718555;82;21552;-70
2022/04/17 00:51:30;;;;;;;4.28;2.55;;;;;;;;;;1732435;82;21068;-70
2022/04/17 00:53:57;;;;;;;4.83;2.60;;;;;;;;;;1728245;82;21052;-70
2022/04/17 00:56:24;;;;;;;3.27;2.50;;;;;;;;;;1699615;82;21020;-70
2022/04/17 00:58:51;;;;;;;5.58;2.80;;;;;;;;;;1712009;84;21056;-71
2022/04/17 01:04:07;;;;;;;7.03;2.85;;;;;;;;;;1705349;79;73526;-71
2022/04/17 01:06:34;;;;;;;6.72;3.27;;;;;;;;;;1681168;85;21118;-70
2022/04/17 01:09:00;;;;;;;6.35;2.70;;;;;;;;;;1682116;85;21073;-70
2022/04/17 01:11:28;;;;;;;4.83;2.80;;;;;;;;;;1683578;85;21096;-70
2022/04/17 01:13:55;;;;;;;7.80;3.47;;;;;;;;;;1682349;85;21099;-70
2022/04/17 01:16:23;;;;;;;9.38;3.83;;;;;;;;;;1681722;85;21566;-70
2022/04/17 01:18:53;;;;;;;4.75;2.92;;;;;;;;;;1682832;85;21049;-70
2022/04/17 01:21:20;;;;;;;8.48;3.62;;;;;;;;;;1684065;85;21016;-70
2022/04/17 01:29:18;;;;;;;6.30;2.85;;;;;;;;;;1682725;85;21084;-70
2022/04/17 01:31:46;;;;;;;4.58;2.30;;;;;;;;;;1664288;85;21065;-70
2022/04/17 01:34:13;;;;;;;4.53;2.77;;;;;;;;;;1681871;85;21041;-70
2022/04/17 01:36:40;;;;;;;2.47;2.10;;;;;;;;;;1681866;85;21007;-71
2022/04/17 01:39:06;;;;;;;3.80;2.40;;;;;;;;;;1682891;85;21068;-71
2022/04/17 01:41:32;;;;;;;2.87;2.50;;;;;;;;;;1664363;85;21537;-71
2022/04/17 01:43:59;;;;;;;5.70;2.27;;;;;;;;;;1681915;85;21567;-71
2022/04/17 01:46:25;;;;;;;3.08;2.35;;;;;;;;;;1649502;87;21050;-71
2022/04/17 01:48:51;;;;;;;3.22;2.20;;;;;;;;;;1655113;87;21066;-71
2022/04/17 01:51:18;;;;;;;3.42;2.10;;;;;;;;;;1654922;87;21619;-71
2022/04/17 01:53:45;;;;;;;3.10;2.45;;;;;;;;;;1664547;85;21065;-71
2022/04/17 01:56:11;;;;;;;2.33;1.95;;;;;;;;;;1683045;85;20997;-70
2022/04/17 01:58:38;;;;;;;2.70;2.25;;;;;;;;;;1640260;87;21111;-70
2022/04/17 02:01:05;;;;;;;4.65;2.35;;;;;;;;;;1662695;86;21093;-71
2022/04/17 02:03:31;;;;;;;2.95;2.22;;;;;;;;;;1720053;82;21079;-70
2022/04/17 02:05:57;;;;;;;2.02;1.85;;;;;;;;;;1725397;83;21542;-70
2022/04/17 02:08:24;;;;;;;2.25;1.85;;;;;;;;;;1732650;82;21082;-71
2022/04/17 02:10:51;;;;;;;2.67;2.00;;;;;;;;;;1732634;82;21494;-71
2022/04/17 02:13:18;;;;;;;3.40;2.60;;;;;;;;;;1722264;83;21044;-70
2022/04/17 02:15:45;;;;;;;4.60;3.08;;;;;;;;;;1720910;83;20996;-72
2022/04/17 02:18:13;;;;;;;4.80;3.40;;;;;;;;;;1731699;83;20980;-70
2022/04/17 02:20:39;;;;;;;3.58;2.83;;;;;;;;;;1732705;82;21000;-70
2022/04/17 02:23:05;;;;;;;4.37;3.20;;;;;;;;;;1731876;83;21503;-70
2022/04/17 02:25:33;;;;;;;3.67;2.98;;;;;;;;;;1725608;82;21031;-70
2022/04/17 02:28:00;;;;;;;3.87;2.85;;;;;;;;;;1723532;83;21051;-70
2022/04/17 02:30:26;;;;;;;5.45;3.45;;;;;;;;;;1722728;83;20973;-71
2022/04/17 02:32:52;;;;;;;5.42;3.17;;;;;;;;;;1720341;83;21063;-70
2022/04/17 02:35:19;;;;;;;5.28;2.90;;;;;;;;;;1720175;83;21066;-70
2022/04/17 02:37:45;;;;;;;5.33;3.27;;;;;;;;;;1730773;83;20988;-70
2022/04/17 02:40:13;;;;;;;5.72;3.67;;;;;;;;;;1728560;82;21040;-70
2022/04/17 02:42:40;;;;;;;8.18;3.65;;;;;;;;;;1728923;82;21500;-71
2022/04/17 02:45:07;;;;;;;8.10;3.72;;;;;;;;;;1719917;83;21107;-70
2022/04/17 02:47:51;;;;;;;8.13;3.90;;;;;;;;;;1725704;83;20992;-70
2022/04/17 02:50:14;;;;;;;6.37;3.75;;;;;;;;;;1718707;83;20996;-71
2022/04/17 02:52:43;;;;;;;4.80;3.08;;;;;;;;;;1731521;83;21024;-70
2022/04/17 02:55:10;;;;;;;5.35;3.40;;;;;;;;;;1726644;83;21043;-71
2022/04/17 02:57:37;;;;;;;5.65;2.87;;;;;;;;;;1718227;83;21061;-72
2022/04/17 03:00:03;;;;;;;4.47;2.92;;;;;;;;;;1719971;83;21016;-70
2022/04/17 03:08:00;;;;;;;3.08;2.22;;;;;;;;;;1714611;84;21089;-71
2022/04/17 03:10:26;;;;;;;2.50;1.95;;;;;;;;;;1728464;82;21005;-71
2022/04/17 03:12:53;;;;;;;3.02;2.35;;;;;;;;;;1713705;83;21002;-71
2022/04/17 03:15:19;;;;;;;3.12;2.27;;;;;;;;;;1703733;82;21029;-71
2022/04/17 03:17:45;;;;;;;2.83;2.08;;;;;;;;;;1717544;83;21320;-71
2022/04/17 03:20:11;;;;;;;3.65;2.58;;;;;;;;;;1714087;84;21029;-71
2022/04/17 03:22:42;;;;;;;3.42;2.35;;;;;;;;;;1715026;84;21544;-70
2022/04/17 03:25:10;;;;;;;5.20;2.85;;;;;;;;;;1714707;84;21037;-71
2022/04/17 03:27:38;;;;;;;2.80;2.15;;;;;;;;;;1714394;83;21049;-71
2022/04/17 03:30:06;;;;;;;4.12;2.70;;;;;;;;;;1717360;83;21044;-70
2022/04/17 03:35:23;;;;;;;5.25;2.80;;;;;;;;;;1759175;80;74356;-72
2022/04/17 03:37:50;;;;;;;5.33;2.95;;;;;;;;;;1780931;80;21012;-73
2022/04/17 03:40:16;;;;;;;6.42;3.40;;;;;;;;;;1789902;80;21008;-73
2022/04/17 03:42:43;;;;;;;5.85;2.47;;;;;;;;;;1767127;80;21531;-73
2022/04/17 03:45:11;;;;;;;6.58;3.10;;;;;;;;;;1762192;81;21031;-73
2022/04/17 03:47:38;;;;;;;6.33;3.22;;;;;;;;;;1727722;82;22105;-73
2022/04/17 03:50:04;;;;;;;5.45;2.80;;;;;;;;;;1717770;83;21338;-73
2022/04/17 03:52:38;;;;;;;5.10;2.92;;;;;;;;;;1726298;82;21516;-73
2022/04/17 03:55:05;;;;;;;3.58;2.40;;;;;;;;;;1726248;83;21047;-73
2022/04/17 03:57:32;;;;;;;3.70;2.10;;;;;;;;;;1732889;82;21046;-73
2022/04/17 03:59:58;;;;;;;3.77;2.22;;;;;;;;;;1708406;83;21077;-72
2022/04/17 04:02:24;;;;;;;3.67;2.37;;;;;;;;;;1749477;82;21037;-73
2022/04/17 04:04:51;;;;;;;5.00;2.55;;;;;;;;;;1704213;82;21033;-73
2022/04/17 04:07:17;;;;;;;3.45;2.22;;;;;;;;;;1698421;84;21056;-73
2022/04/17 04:09:45;;;;;;;3.00;2.27;;;;;;;;;;1724005;83;21111;-73
2022/04/17 04:12:11;;;;;;;3.30;2.00;;;;;;;;;;1727254;82;21089;-73
2022/04/17 04:14:41;;;;;;;5.10;2.17;;;;;;;;;;1745602;82;21081;-72
2022/04/17 04:17:09;;;;;;;4.85;2.42;;;;;;;;;;1705552;83;21113;-73
2022/04/17 04:19:36;;;;;;;4.25;2.27;;;;;;;;;;1732736;82;21560;-73
2022/04/17 04:22:03;;;;;;;3.77;2.20;;;;;;;;;;1728815;81;21064;-73
2022/04/17 04:24:31;;;;;;;2.92;2.10;;;;;;;;;;1737818;81;21555;-73
2022/04/17 04:29:42;;;;;;;3.50;2.12;;;;;;;;;;1721961;82;20970;-73
2022/04/17 04:32:08;;;;;;;4.08;2.30;;;;;;;;;;1739269;82;21551;-73
2022/04/17 04:34:35;;;;;;;2.80;2.02;;;;;;;;;;1699281;82;21156;-73
2022/04/17 04:37:04;;;;;;;2.65;2.00;;;;;;;;;;1738992;82;21044;-73
2022/04/17 04:39:31;;;;;;;2.40;2.20;;;;;;;;;;1738650;82;21520;-73
2022/04/17 04:41:57;;;;;;;2.60;1.92;;;;;;;;;;1739026;82;21068;-72
2022/04/17 04:44:24;;;;;;;3.17;2.00;;;;;;;;;;1702267;84;21535;-70
2022/04/17 04:46:50;;;;;;;2.42;2.10;;;;;;;;;;1781565;80;21068;-71
2022/04/17 04:49:29;;;;;;;3.72;2.20;;;;;;;;;;1781855;80;21052;-71
2022/04/17 04:51:56;;;;;;;3.10;2.00;;;;;;;;;;1779630;80;21522;-71
2022/04/17 04:54:22;;;;;;;2.98;2.05;;;;;;;;;;1778804;81;21063;-71
2022/04/17 04:56:48;;;;;;;3.25;2.30;;;;;;;;;;1778716;81;21003;-71
2022/04/17 04:59:15;;;;;;;3.05;2.30;;;;;;;;;;1778886;81;21633;-71
2022/04/17 05:01:41;;;;;;;3.67;2.30;;;;;;;;;;1778677;81;20980;-72
2022/04/17 05:04:07;;;;;;;3.52;2.17;;;;;;;;;;1778492;81;20992;-73
2022/04/17 05:06:35;;;;;;;2.62;2.08;;;;;;;;;;1778706;81;21012;-74
2022/04/17 05:09:01;;;;;;;3.37;2.20;;;;;;;;;;1778806;81;21044;-73
2022/04/17 05:11:28;;;;;;;2.95;2.30;;;;;;;;;;1778446;81;21114;-74
2022/04/17 05:13:55;;;;;;;2.37;2.10;;;;;;;;;;1778601;81;20976;-73
2022/04/17 05:16:22;;;;;;;3.47;2.35;;;;;;;;;;1778380;81;21023;-73
2022/04/17 05:18:56;;;;;;;4.65;2.50;;;;;;;;;;1778876;81;21050;-73
2022/04/17 05:21:19;;;;;;;2.70;2.05;;;;;;;;;;1762264;80;21562;-73
2022/04/17 05:23:45;;;;;;;2.30;2.10;;;;;;;;;;1760846;80;21530;-72
2022/04/17 05:26:12;;;;;;;2.15;1.90;;;;;;;;;;1768622;81;21000;-72
2022/04/17 05:28:38;;;;;;;3.37;2.00;;;;;;;;;;1778799;81;21064;-72
2022/04/17 05:31:05;;;;;;;3.10;2.27;;;;;;;;;;1777358;81;21540;-72
2022/04/17 05:33:31;;;;;;;2.42;2.08;;;;;;;;;;1771522;79;20996;-72
2022/04/17 05:35:57;;;;;;;2.30;1.92;;;;;;;;;;1782152;80;21009;-73
2022/04/17 05:38:24;;;;;;;2.58;2.10;;;;;;;;;;1763978;80;21027;-72
2022/04/17 05:40:51;;;;;;;2.90;2.20;;;;;;;;;;1785423;79;20980;-72
2022/04/17 05:43:17;;;;;;;2.55;2.25;;;;;;;;;;1786614;80;21033;-71
2022/04/17 05:45:44;;;;;;;3.33;2.27;;;;;;;;;;1790039;80;21069;-72
2022/04/17 05:48:10;;;;;;;2.17;1.52;;;;;;;;;;1791302;80;21048;-72
2022/04/17 05:50:39;;;;;;;2.62;1.70;;;;;;;;;;1791352;80;21479;-72
2022/04/17 05:53:04;;;;;;;1.80;1.70;;;;;;;;;;1792246;80;21008;-72
2022/04/17 05:55:31;;;;;;;2.12;1.57;;;;;;;;;;1761673;81;21550;-72
2022/04/17 05:57:58;;;;;;;1.67;1.57;;;;;;;;;;1761612;81;21019;-72
2022/04/17 06:00:24;;;;;;;2.98;1.62;;;;;;;;;;1761680;81;21004;-73
2022/04/17 06:02:51;;;;;;;2.67;1.60;;;;;;;;;;1782212;80;21067;-72
2022/04/17 06:05:19;;;;;;;3.37;2.25;;;;;;;;;;1790850;80;21127;-73
2022/04/17 06:07:48;;;;;;;2.00;1.77;;;;;;;;;;1791309;80;20997;-73
2022/04/17 06:10:18;;;;;;;1.98;1.77;;;;;;;;;;1790873;80;21179;-73
2022/04/17 06:12:44;;;;;;;2.95;1.87;;;;;;;;;;1788948;80;21024;-73
2022/04/17 06:15:10;;;;;;;2.62;1.90;;;;;;;;;;1785022;80;21013;-74
2022/04/17 06:17:40;;;;;;;1.50;1.40;;;;;;;;;;1789114;80;20985;-73
2022/04/17 06:20:11;;;;;;;1.90;1.62;;;;;;;;;;1791052;80;21618;-73
2022/04/17 06:22:39;;;;;;;1.98;1.70;;;;;;;;;;1790561;80;21578;-73
2022/04/17 06:25:07;;;;;;;2.20;1.67;;;;;;;;;;1791242;80;21016;-73
2022/04/17 06:27:38;;;;;;;3.80;2.10;;;;;;;;;;1782929;80;21017;-72
2022/04/17 06:30:08;;;;;;;3.25;1.87;;;;;;;;;;1782580;80;21093;-72
2022/04/17 06:32:36;;;;;;;4.62;2.60;;;;;;;;;;1781194;80;21088;-72
2022/04/17 06:35:02;;;;;;;2.98;2.00;;;;;;;;;;1782367;80;21029;-72
2022/04/17 06:37:29;;;;;;;4.33;2.00;;;;;;;;;;1766073;80;21091;-71
2022/04/17 06:39:57;;;;;;;2.33;1.77;;;;;;;;;;1764856;81;21013;-72
2022/04/17 06:42:23;;;;;;;3.27;2.12;;;;;;;;;;1760803;81;21027;-71
2022/04/17 06:44:49;;;;;;;3.50;2.35;;;;;;;;;;1762184;81;21027;-72
2022/04/17 06:47:16;;;;;;;3.37;2.22;;;;;;;;;;1760982;81;21096;-72
2022/04/17 06:49:44;;;;;;;2.70;2.10;;;;;;;;;;1760897;81;22123;-70
2022/04/17 06:52:10;;;;;;;3.40;2.27;;;;;;;;;;1760723;81;21087;-70
2022/04/17 06:54:36;;;;;;;4.08;2.47;;;;;;;;;;1764163;81;21029;-69
2022/04/17 06:57:02;;;;;;;4.08;2.50;;;;;;;;;;1777118;81;21173;-68
2022/04/17 06:59:29;;;;;;;3.08;2.40;;;;;;;;;;1777242;81;21547;-68
2022/04/17 07:01:55;;;;;;;3.35;2.37;;;;;;;;;;1777100;81;21009;-68
2022/04/17 07:04:21;;;;;;;5.08;2.55;;;;;;;;;;1777305;81;21044;-68
2022/04/17 07:06:49;;;;;;;4.95;2.70;;;;;;;;;;1763723;81;21051;-69
2022/04/17 07:09:15;;;;;;;5.50;2.80;;;;;;;;;;1762005;81;21068;-69
2022/04/17 07:11:42;;;;;;;6.58;2.95;;;;;;;;;;1761261;81;21099;-69
2022/04/17 07:14:12;;;;;;;6.17;3.27;;;;;;;;;;1761259;81;21016;-68
2022/04/17 07:16:38;;;;;;;7.45;3.90;;;;;;;;;;1760915;81;21088;-69
2022/04/17 07:19:05;;;;;;;6.30;3.60;;;;;;;;;;1775436;81;21089;-69
2022/04/17 07:21:33;;;;;;;6.20;3.40;;;;;;;;;;1771379;81;21026;-70
2022/04/17 07:23:59;;;;;;;5.92;3.17;;;;;;;;;;1782261;80;21455;-70
2022/04/17 07:26:27;;;;;;;7.37;2.80;;;;;;;;;;1777715;80;21044;-69
2022/04/17 07:28:53;;;;;;;5.95;3.02;;;;;;;;;;1776727;81;21033;-68
2022/04/17 07:31:19;;;;;;;6.08;3.22;;;;;;;;;;1777923;80;21443;-69
2022/04/17 07:33:46;;;;;;;5.22;3.35;;;;;;;;;;1777251;80;21127;-70
2022/04/17 07:36:13;;;;;;;6.55;4.00;;;;;;;;;;1767213;80;21147;-70
2022/04/17 07:38:40;;;;;;;3.85;2.60;;;;;;;;;;1780220;80;21500;-70
2022/04/17 07:41:06;;;;;;;3.42;2.45;;;;;;;;;;1775153;80;21039;-70
2022/04/17 07:43:34;;;;;;;2.40;2.08;;;;;;;;;;1771721;80;21111;-69
2022/04/17 07:46:00;;;;;;;2.90;2.17;;;;;;;;;;1771679;81;21602;-69
2022/04/17 07:48:28;;;;;;;1.70;1.60;;;;;;;;;;1772361;80;21047;-69
2022/04/17 07:50:54;;;;;;;2.42;1.90;;;;;;;;;;1771969;80;21063;-69
2022/04/17 07:53:21;;;;;;;2.47;1.92;;;;;;;;;;1779788;80;21526;-70
2022/04/17 07:55:49;;;;;;;3.10;2.22;;;;;;;;;;1779731;80;21155;-70
2022/04/17 07:58:24;;;;;;;3.10;2.10;;;;;;;;;;1780203;80;21068;-70
2022/04/17 08:00:57;;;;;;;2.20;1.92;;;;;;;;;;1780151;80;21057;-70
2022/04/17 08:05:57;;;;;;;3.15;2.15;;;;;;;;;;1776243;80;21475;-69
2022/04/17 08:08:25;;;;;;;2.60;2.00;;;;;;;;;;1777257;79;21023;-69
2022/04/17 08:10:51;;;;;;;2.50;1.80;;;;;;;;;;1769570;80;21027;-69
2022/04/17 08:13:19;;;;;;;2.70;1.80;;;;;;;;;;1783912;80;21045;-69
2022/04/17 08:15:45;;;;;;;2.45;2.15;;;;;;;;;;1781972;80;21101;-69
2022/04/17 08:18:13;;;;;;;2.37;1.87;;;;;;;;;;1773229;80;21043;-69
2022/04/17 08:20:39;;;;;;;2.62;2.00;;;;;;;;;;1768655;81;21506;-69
2022/04/17 08:23:05;;;;;;;3.25;2.12;;;;;;;;;;1768437;81;21003;-70
2022/04/17 08:25:32;;;;;;;4.67;2.10;;;;;;;;;;1768543;81;21027;-69
2022/04/17 08:27:59;;;;;;;5.50;2.45;;;;;;;;;;1768443;81;21019;-69
2022/04/17 08:30:27;;;;;;;3.67;2.58;;;;;;;;;;1776661;80;20982;-69
2022/04/17 08:32:53;;;;;;;2.40;2.08;;;;;;;;;;1781836;80;21030;-69
2022/04/17 08:35:19;;;;;;;2.10;1.35;;;;;;;;;;1767041;80;21084;-69
2022/04/17 08:37:47;;;;;;;2.98;1.80;;;;;;;;;;1727616;81;21064;-68
2022/04/17 08:40:14;;;;;;;1.92;1.60;;;;;;;;;;1744156;81;21496;-69
2022/04/17 08:42:42;;;;;;;3.98;1.90;;;;;;;;;;1752026;82;21023;-70
2022/04/17 08:45:09;;;;;;;3.75;2.40;;;;;;;;;;1755855;80;21068;-69
2022/04/17 08:47:38;;;;;;;3.45;2.52;;;;;;;;;;1703631;83;21102;-69
2022/04/17 08:50:08;;;;;;;4.05;2.42;;;;;;;;;;1749177;82;20994;-69
2022/04/17 08:52:35;;;;;;;4.67;2.10;;;;;;;;;;1755380;82;21048;-69
2022/04/17 08:55:01;;;;;;;3.25;1.90;;;;;;;;;;1755709;82;21079;-69
2022/04/17 08:57:27;;;;;;;4.35;2.30;;;;;;;;;;1741132;80;21092;-70
2022/04/17 08:59:55;;;;;;;4.35;2.20;;;;;;;;;;1771067;81;21045;-70
2022/04/17 09:02:23;;;;;;;6.67;2.72;;;;;;;;;;1771245;80;21029;-69
2022/04/17 09:04:50;;;;;;;4.83;2.50;;;;;;;;;;1755564;81;21037;-68
2022/04/17 09:07:16;;;;;;;3.72;2.77;;;;;;;;;;1714922;83;20963;-70
2022/04/17 09:09:49;;;;;;;4.53;2.50;;;;;;;;;;1722615;83;21060;-70
2022/04/17 09:12:19;;;;;;;2.92;2.05;;;;;;;;;;1753574;82;21064;-70
2022/04/17 09:14:46;;;;;;;4.78;2.60;;;;;;;;;;1749375;82;21136;-66
2022/04/17 09:17:13;;;;;;;2.27;1.90;;;;;;;;;;1718707;83;21086;-75
2022/04/17 09:19:40;;;;;;;2.02;1.70;;;;;;;;;;1755672;81;21028;-75
2022/04/17 09:22:07;;;;;;;2.02;1.72;;;;;;;;;;1725543;83;21082;-75
2022/04/17 09:24:34;;;;;;;3.00;2.05;;;;;;;;;;1740934;82;21007;-75
2022/04/17 09:27:00;;;;;;;3.72;2.33;;;;;;;;;;1771328;81;21062;-75
2022/04/17 09:29:28;;;;;;;5.40;3.17;;;;;;;;;;1771452;81;21581;-75
2022/04/17 09:31:59;;;;;;;4.50;2.60;;;;;;;;;;1771364;80;21050;-75
2022/04/17 09:34:25;;;;;;;2.47;2.02;;;;;;;;;;1755791;82;21044;-75
2022/04/17 09:36:56;;;;;;;3.12;2.12;;;;;;;;;;1719817;83;21101;-75
2022/04/17 09:39:23;;;;;;;3.15;1.98;;;;;;;;;;1726440;83;21062;-76
2022/04/17 09:41:51;;;;;;;2.85;1.77;;;;;;;;;;1739125;82;21060;-77
2022/04/17 09:44:34;;;;;;;4.25;2.65;;;;;;;;;;1697658;84;21887;-76
2022/04/17 09:47:01;;;;;;;5.12;2.52;;;;;;;;;;1719890;83;21036;-76
2022/04/17 09:49:28;;;;;;;6.05;3.02;;;;;;;;;;1720005;83;21100;-76
2022/04/17 09:51:56;;;;;;;4.30;2.55;;;;;;;;;;1719931;83;21040;-68
2022/04/17 09:54:22;;;;;;;5.12;2.58;;;;;;;;;;1718649;83;21064;-69
2022/04/17 09:56:50;;;;;;;3.92;2.20;;;;;;;;;;1715539;83;21075;-71
2022/04/17 09:59:23;;;;;;;4.22;2.20;;;;;;;;;;1742536;81;21057;-71
2022/04/17 10:01:50;;;;;;;3.15;2.00;;;;;;;;;;1766628;81;20997;-71
2022/04/17 10:04:19;;;;;;;4.97;2.87;;;;;;;;;;1759797;81;21516;-71
2022/04/17 10:06:46;;;;;;;3.55;2.30;;;;;;;;;;1751700;81;21036;-72
2022/04/17 10:09:14;;;;;;;2.85;2.02;;;;;;;;;;1742336;82;21048;-70
2022/04/17 10:11:41;;;;;;;5.10;2.47;;;;;;;;;;1742198;82;21056;-70
2022/04/17 10:14:07;;;;;;;3.98;2.27;;;;;;;;;;1742294;82;21036;-70
2022/04/17 10:16:33;;;;;;;4.53;2.30;;;;;;;;;;1750439;81;21033;-70
2022/04/17 10:19:00;;;;;;;2.72;1.90;;;;;;;;;;1766511;81;20994;-71
2022/04/17 10:21:28;;;;;;;3.17;1.80;;;;;;;;;;1766188;81;21037;-72
2022/04/17 10:23:56;;;;;;;1.98;1.72;;;;;;;;;;1766229;81;21517;-71
2022/04/17 10:26:23;;;;;;;2.08;1.82;;;;;;;;;;1766021;81;21564;-71
2022/04/17 10:28:52;;;;;;;2.05;1.72;;;;;;;;;;1763599;81;21108;-70
2022/04/17 10:31:19;;;;;;;3.55;1.92;;;;;;;;;;1761462;79;20993;-71
2022/04/17 10:34:07;;;;;;;3.85;2.00;;;;;;;;;;1755226;81;21001;-70
2022/04/17 10:36:41;;;;;;;5.17;2.33;;;;;;;;;;1759829;81;21049;-70
2022/04/17 10:39:20;;;;;;;4.20;2.20;;;;;;;;;;1758954;81;21497;-70
2022/04/17 10:41:48;;;;;;;2.62;1.95;;;;;;;;;;1758514;81;21100;-70
2022/04/17 10:44:15;;;;;;;2.22;1.82;;;;;;;;;;1739378;82;21077;-70
2022/04/17 10:46:46;;;;;;;1.87;1.65;;;;;;;;;;1757545;81;21010;-70
2022/04/17 10:49:12;;;;;;;2.95;2.00;;;;;;;;;;1767486;81;21042;-69
2022/04/17 10:52:41;;;;;;;2.40;1.90;;;;;;;;;;1801922;79;23383;-70
2022/04/17 10:55:10;;;;;;;2.25;1.80;;;;;;;;;;1761802;81;21081;-70
2022/04/17 10:57:46;;;;;;;2.02;1.72;;;;;;;;;;1761499;81;21068;-71
2022/04/17 11:00:28;;;;;;;2.05;1.80;;;;;;;;;;1756784;81;21049;-70
2022/04/17 11:02:54;;;;;;;2.52;2.00;;;;;;;;;;1760739;81;21020;-69
2022/04/17 11:06:08;;;;;;;1.92;1.60;;;;;;;;;;1757495;81;21048;-69
2022/04/17 11:08:17;;;;;;;2.22;1.90;;;;;;;;;;1757256;81;21528;-70
2022/04/17 11:10:43;;;;;;;3.10;2.00;;;;;;;;;;1761909;81;21009;-71
2022/04/17 11:13:09;;;;;;;2.10;1.85;;;;;;;;;;1757182;81;21052;-71
2022/04/17 11:15:35;;;;;;;2.58;1.90;;;;;;;;;;1755898;82;21035;-72
2022/04/17 11:18:04;;;;;;;3.05;2.20;;;;;;;;;;1736612;81;21475;-71
2022/04/17 11:20:30;;;;;;;4.90;2.20;;;;;;;;;;1760186;81;21115;-72
2022/04/17 11:22:57;;;;;;;3.62;2.20;;;;;;;;;;1757729;81;21083;-71
2022/04/17 11:25:23;;;;;;;3.65;2.40;;;;;;;;;;1757851;81;21036;-71
2022/04/17 11:27:51;;;;;;;3.08;2.27;;;;;;;;;;1734923;81;21017;-70
2022/04/17 11:30:19;;;;;;;2.67;2.15;;;;;;;;;;1757077;81;21029;-70
2022/04/17 11:32:47;;;;;;;2.70;1.90;;;;;;;;;;1740588;81;21052;-71
2022/04/17 11:35:17;;;;;;;3.05;2.20;;;;;;;;;;1691311;85;21629;-71
2022/04/17 11:37:51;;;;;;;3.17;2.20;;;;;;;;;;1676127;85;21055;-71
2022/04/17 11:40:19;;;;;;;3.70;2.10;;;;;;;;;;1671359;85;21052;-72
2022/04/17 11:42:48;;;;;;;2.12;1.72;;;;;;;;;;1677183;85;21600;-70
2022/04/17 11:45:14;;;;;;;2.62;1.90;;;;;;;;;;1675050;85;21092;-71
2022/04/17 11:47:43;;;;;;;2.12;1.75;;;;;;;;;;1677443;85;21060;-71
2022/04/17 11:50:11;;;;;;;2.47;1.92;;;;;;;;;;1702366;84;21551;-71
2022/04/17 11:52:38;;;;;;;3.15;2.20;;;;;;;;;;1691259;84;21616;-71
2022/04/17 11:55:05;;;;;;;2.55;1.80;;;;;;;;;;1676051;85;21029;-71
2022/04/17 11:57:32;;;;;;;4.53;2.15;;;;;;;;;;1674715;85;21354;-70
2022/04/17 12:00:00;;;;;;;2.65;2.17;;;;;;;;;;1674230;85;21105;-70
2022/04/17 12:02:27;;;;;;;3.35;2.00;;;;;;;;;;1665804;85;21038;-70
2022/04/17 12:04:57;;;;;;;2.70;2.08;;;;;;;;;;1661363;86;21596;-70
2022/04/17 12:07:23;;;;;;;6.08;2.50;;;;;;;;;;1661597;86;21061;-71
2022/04/17 12:09:50;;;;;;;3.77;2.47;;;;;;;;;;1672919;85;21620;-71
2022/04/17 12:12:17;;;;;;;5.62;2.98;;;;;;;;;;1670534;85;21089;-71
2022/04/17 12:14:46;;;;;;;5.28;2.65;;;;;;;;;;1678414;85;21627;-71
2022/04/17 12:17:14;;;;;;;4.83;2.40;;;;;;;;;;1673495;85;21060;-71
2022/04/17 12:19:49;;;;;;;5.03;2.58;;;;;;;;;;1677120;85;21104;-71
2022/04/17 12:22:17;;;;;;;6.05;2.85;;;;;;;;;;1670062;85;21053;-71
2022/04/17 12:24:45;;;;;;;8.58;4.03;;;;;;;;;;1689238;84;21612;-70
2022/04/17 12:27:13;;;;;;;5.15;2.65;;;;;;;;;;1685289;85;21611;-72
2022/04/17 12:29:41;;;;;;;3.33;2.20;;;;;;;;;;1672435;85;21016;-71
2022/04/17 12:32:17;;;;;;;4.47;2.27;;;;;;;;;;1696276;84;21147;-72
2022/04/17 12:34:47;;;;;;;3.42;2.10;;;;;;;;;;1701987;84;21101;-71
2022/04/17 12:37:18;;;;;;;1.85;1.60;;;;;;;;;;1700521;84;21040;-71
2022/04/17 12:39:44;;;;;;;1.95;1.75;;;;;;;;;;1701915;84;21080;-71
2022/04/17 12:42:17;;;;;;;1.92;1.52;;;;;;;;;;1702288;84;21032;-71
2022/04/17 12:44:46;;;;;;;1.50;1.40;;;;;;;;;;1702346;84;21021;-71
2022/04/17 12:47:14;;;;;;;2.98;1.60;;;;;;;;;;1681245;84;21052;-71
2022/04/17 12:49:40;;;;;;;2.65;1.90;;;;;;;;;;1673068;86;21084;-71
2022/04/17 12:52:07;;;;;;;2.33;1.72;;;;;;;;;;1684525;83;21068;-70
2022/04/17 12:54:33;;;;;;;3.33;2.00;;;;;;;;;;1691080;85;21052;-70
2022/04/17 12:57:02;;;;;;;3.33;2.10;;;;;;;;;;1690790;85;21060;-70
2022/04/17 12:59:39;;;;;;;3.25;2.08;;;;;;;;;;1690592;85;21096;-71
2022/04/17 13:02:12;;;;;;;3.92;2.30;;;;;;;;;;1712946;83;22213;-71
2022/04/17 13:04:45;;;;;;;3.72;2.33;;;;;;;;;;1668287;86;21103;-70
2022/04/17 13:07:13;;;;;;;3.98;2.37;;;;;;;;;;1668475;85;20991;-70
2022/04/17 13:09:54;;;;;;;3.42;2.20;;;;;;;;;;1685744;85;21118;-70
2022/04/17 13:12:40;;;;;;;4.95;2.25;;;;;;;;;;1694096;84;21053;-70
2022/04/17 13:15:07;;;;;;;2.10;1.90;;;;;;;;;;1723507;83;21543;-71
2022/04/17 13:17:48;;;;;;;2.80;2.00;;;;;;;;;;1724783;83;21047;-70
2022/04/17 13:20:16;;;;;;;2.40;1.85;;;;;;;;;;1706709;83;21118;-71
2022/04/17 13:22:45;;;;;;;2.33;1.80;;;;;;;;;;1709969;83;21577;-70
2022/04/17 13:25:12;;;;;;;1.87;1.60;;;;;;;;;;1725081;83;21043;-71
2022/04/17 13:27:38;;;;;;;2.83;1.87;;;;;;;;;;1707778;83;21061;-71
2022/04/17 13:30:07;;;;;;;3.72;2.17;;;;;;;;;;1698350;84;21134;-71
2022/04/17 13:32:34;;;;;;;2.95;2.12;;;;;;;;;;1694380;84;21099;-71
2022/04/17 13:35:00;;;;;;;4.30;2.20;;;;;;;;;;1685538;84;21039;-71
2022/04/17 13:40:11;;;;;;;4.15;2.40;;;;;;;;;;1694926;85;21033;-71
2022/04/17 13:42:38;;;;;;;3.05;1.95;;;;;;;;;;1694623;85;21029;-71
2022/04/17 13:45:06;;;;;;;3.30;1.90;;;;;;;;;;1694494;85;21042;-72
2022/04/17 13:47:32;;;;;;;2.70;2.08;;;;;;;;;;1723449;83;21038;-72
2022/04/17 13:50:00;;;;;;;1.80;1.70;;;;;;;;;;1706877;84;21042;-70
2022/04/17 13:52:26;;;;;;;3.30;1.75;;;;;;;;;;1663015;86;21118;-72
2022/04/17 13:54:54;;;;;;;1.70;1.42;;;;;;;;;;1663096;86;21602;-72
2022/04/17 13:57:22;;;;;;;2.70;2.20;;;;;;;;;;1664647;85;21090;-71
2022/04/17 13:59:48;;;;;;;1.60;1.50;;;;;;;;;;1670604;86;22177;-72
2022/04/17 14:02:16;;;;;;;1.62;1.52;;;;;;;;;;1670719;85;21072;-71
2022/04/17 14:04:43;;;;;;;1.50;1.40;;;;;;;;;;1711805;83;21122;-72
2022/04/17 14:07:10;;;;;;;3.00;1.52;;;;;;;;;;1711385;83;21079;-72
2022/04/17 14:09:37;;;;;;;1.70;1.60;;;;;;;;;;1695595;83;21073;-72
2022/04/17 14:12:08;;;;;;;1.65;1.55;;;;;;;;;;1724136;83;21183;-72
2022/04/17 14:14:33;;;;;;;2.35;1.50;;;;;;;;;;1696002;84;21075;-72
2022/04/17 14:17:01;;;;;;;1.50;1.40;;;;;;;;;;1668142;86;21082;-72
2022/04/17 14:19:29;;;;;;;1.77;1.50;;;;;;;;;;1668423;86;21090;-70
2022/04/17 14:21:55;;;;;;;1.77;1.50;;;;;;;;;;1696239;84;21135;-72
2022/04/17 14:24:21;;;;;;;1.50;1.40;;;;;;;;;;1696342;84;21047;-72
2022/04/17 14:26:48;;;;;;;1.75;1.42;;;;;;;;;;1680180;85;21026;-71
2022/04/17 14:29:14;;;;;;;2.00;1.60;;;;;;;;;;1684641;85;21060;-71
2022/04/17 14:31:40;;;;;;;1.50;1.40;;;;;;;;;;1712193;83;21077;-72
2022/04/17 14:34:08;;;;;;;1.90;1.70;;;;;;;;;;1719727;83;21071;-71
2022/04/17 14:36:35;;;;;;;3.20;1.75;;;;;;;;;;1717338;83;20948;-72
2022/04/17 14:39:01;;;;;;;1.60;1.50;;;;;;;;;;1720484;83;21443;-72
2022/04/17 14:41:28;;;;;;;1.98;1.60;;;;;;;;;;1711983;83;21109;-71
2022/04/17 14:43:56;;;;;;;1.95;1.70;;;;;;;;;;1684348;84;21059;-71
2022/04/17 14:46:22;;;;;;;1.92;1.60;;;;;;;;;;1696165;84;21088;-71
2022/04/17 14:48:48;;;;;;;2.42;1.70;;;;;;;;;;1669041;85;21032;-71
2022/04/17 14:51:14;;;;;;;2.25;1.60;;;;;;;;;;1697507;83;21101;-71
2022/04/17 14:53:41;;;;;;;2.15;1.82;;;;;;;;;;1694839;84;21674;-71
2022/04/17 14:56:08;;;;;;;1.75;1.65;;;;;;;;;;1695251;85;21014;-71
2022/04/17 14:58:34;;;;;;;3.10;1.90;;;;;;;;;;1694876;85;21127;-72
2022/04/17 15:01:00;;;;;;;2.87;1.80;;;;;;;;;;1707168;83;21551;-71
2022/04/17 15:03:26;;;;;;;2.30;1.62;;;;;;;;;;1707004;84;21054;-71
2022/04/17 15:05:54;;;;;;;2.08;1.80;;;;;;;;;;1725145;83;21530;-71
2022/04/17 15:08:20;;;;;;;3.17;1.87;;;;;;;;;;1717009;83;20996;-72
2022/04/17 15:10:51;;;;;;;1.98;1.75;;;;;;;;;;1698481;83;21067;-70
2022/04/17 15:13:15;;;;;;;2.05;1.85;;;;;;;;;;1687476;84;21040;-71